createdAt,value
2017-10-06T00:01:50.877Z,10.70
2017-10-06T00:04:18.328Z,10.49
2017-10-06T00:06:45.809Z,10.47
2017-10-06T00:09:13.282Z,10.39
2017-10-06T00:11:40.780Z,10.23
2017-10-06T00:14:08.269Z,10.20
2017-10-06T00:16:35.734Z,10.15
2017-10-06T00:19:03.253Z,10.05
2017-10-06T00:21:30.717Z,9.99
2017-10-06T00:23:58.217Z,9.85
2017-10-06T00:26:25.667Z,9.92
2017-10-06T00:28:53.158Z,9.91
2017-10-06T00:31:20.635Z,9.93
2017-10-06T00:33:48.116Z,10.07
2017-10-06T00:36:15.587Z,9.94
2017-10-06T00:38:43.045Z,9.92
2017-10-06T00:41:10.524Z,10.11
2017-10-06T00:43:37.981Z,10.19
2017-10-06T00:46:05.460Z,10.32
2017-10-06T00:48:32.910Z,10.35
2017-10-06T00:51:00.416Z,10.23
2017-10-06T00:53:27.891Z,10.02
2017-10-06T00:55:55.403Z,9.87
2017-10-06T00:58:22.892Z,9.92
2017-10-06T01:00:50.349Z,9.90
2017-10-06T01:03:17.843Z,9.78
2017-10-06T01:05:45.294Z,9.74
2017-10-06T01:08:12.825Z,9.73
2017-10-06T01:10:40.286Z,9.71
2017-10-06T01:13:07.773Z,9.62
2017-10-06T01:15:35.227Z,9.58
2017-10-06T01:18:02.727Z,9.56
2017-10-06T01:20:30.176Z,9.58
2017-10-06T01:22:57.637Z,9.57
2017-10-06T01:25:25.092Z,9.52
2017-10-06T01:27:52.580Z,9.53
2017-10-06T01:30:20.052Z,9.52
2017-10-06T01:32:47.500Z,9.57
2017-10-06T01:35:14.983Z,9.62
2017-10-06T01:37:42.466Z,9.74
2017-10-06T01:40:09.938Z,9.86
2017-10-06T01:42:37.390Z,9.88
2017-10-06T01:45:04.865Z,9.96
2017-10-06T01:47:32.338Z,10.00
2017-10-06T01:49:59.828Z,10.05
2017-10-06T01:52:27.284Z,10.04
2017-10-06T01:54:54.778Z,9.96
2017-10-06T01:57:22.272Z,9.79
2017-10-06T01:59:49.724Z,9.75
2017-10-06T02:02:17.549Z,9.74
2017-10-06T02:04:45.004Z,9.70
2017-10-06T02:07:12.485Z,9.64
2017-10-06T02:09:39.951Z,9.65
2017-10-06T02:12:07.432Z,9.63
2017-10-06T02:14:34.905Z,9.65
2017-10-06T02:17:02.348Z,9.71
2017-10-06T02:19:29.848Z,9.75
2017-10-06T02:21:57.301Z,9.78
2017-10-06T02:24:24.772Z,9.80
2017-10-06T02:26:52.262Z,9.79
2017-10-06T02:29:19.757Z,9.84
2017-10-06T02:31:47.209Z,9.82
2017-10-06T02:34:14.695Z,9.84
2017-10-06T02:36:42.190Z,9.95
2017-10-06T02:39:09.681Z,9.93
2017-10-06T02:41:37.159Z,9.84
2017-10-06T02:44:04.614Z,9.80
2017-10-06T02:46:32.091Z,9.75
2017-10-06T02:48:59.566Z,9.74
2017-10-06T02:51:27.052Z,9.88
2017-10-06T02:53:54.531Z,9.89
2017-10-06T02:56:22.033Z,9.84
2017-10-06T02:58:49.492Z,9.83
2017-10-06T03:01:16.990Z,9.81
2017-10-06T03:03:44.455Z,9.75
2017-10-06T03:06:11.921Z,9.87
2017-10-06T03:08:39.400Z,9.78
2017-10-06T03:11:06.862Z,9.87
2017-10-06T03:13:34.336Z,9.89
2017-10-06T03:16:01.814Z,9.86
2017-10-06T03:18:29.332Z,9.84
2017-10-06T03:20:56.787Z,9.94
2017-10-06T03:23:24.317Z,10.01
2017-10-06T03:25:51.752Z,10.11
2017-10-06T03:28:19.252Z,10.30
2017-10-06T03:30:46.721Z,10.38
2017-10-06T03:33:14.206Z,10.52
2017-10-06T03:35:41.656Z,10.58
2017-10-06T03:38:09.139Z,10.49
2017-10-06T03:40:36.593Z,10.54
2017-10-06T03:43:04.070Z,10.54
2017-10-06T03:45:31.549Z,10.57
2017-10-06T03:47:59.003Z,10.67
2017-10-06T03:50:26.475Z,10.80
2017-10-06T03:52:53.925Z,10.68
2017-10-06T03:55:21.412Z,10.66
2017-10-06T03:57:48.865Z,10.78
2017-10-06T04:00:16.345Z,10.69
2017-10-06T04:02:43.810Z,10.69
2017-10-06T04:05:11.317Z,10.53
2017-10-06T04:07:38.802Z,10.63
2017-10-06T04:10:06.261Z,10.79
2017-10-06T04:12:33.745Z,10.88
2017-10-06T04:15:01.213Z,10.93
2017-10-06T04:17:28.737Z,10.78
2017-10-06T04:19:56.194Z,10.76
2017-10-06T04:22:23.666Z,10.85
2017-10-06T04:24:51.134Z,10.94
2017-10-06T04:27:18.655Z,11.03
2017-10-06T04:29:46.144Z,10.95
2017-10-06T04:32:14.677Z,10.93
2017-10-06T04:34:42.199Z,10.84
2017-10-06T04:37:09.654Z,10.85
2017-10-06T04:39:37.141Z,10.93
2017-10-06T04:42:04.619Z,10.99
2017-10-06T04:44:32.097Z,10.98
2017-10-06T04:46:59.584Z,10.99
2017-10-06T04:49:27.069Z,11.02
2017-10-06T04:51:54.533Z,11.01
2017-10-06T04:54:22.041Z,10.89
2017-10-06T04:56:49.552Z,10.85
2017-10-06T04:59:17.033Z,10.85
2017-10-06T05:01:44.496Z,10.87
2017-10-06T05:04:11.995Z,10.85
2017-10-06T05:06:41.598Z,10.76
2017-10-06T05:09:09.089Z,10.83
2017-10-06T05:11:37.610Z,10.82
2017-10-06T05:14:05.125Z,10.73
2017-10-06T05:16:32.613Z,10.61
2017-10-06T05:19:00.089Z,10.51
2017-10-06T05:21:27.611Z,10.47
2017-10-06T05:23:55.132Z,10.42
2017-10-06T05:26:22.752Z,10.40
2017-10-06T05:28:50.383Z,10.38
2017-10-06T05:31:17.978Z,10.34
2017-10-06T05:33:45.441Z,10.36
2017-10-06T05:36:12.913Z,10.30
2017-10-06T05:38:40.449Z,10.37
2017-10-06T05:41:07.902Z,10.39
2017-10-06T05:43:35.541Z,10.38
2017-10-06T05:46:03.004Z,10.43
2017-10-06T05:48:30.465Z,10.44
2017-10-06T05:50:57.958Z,10.51
2017-10-06T05:53:25.404Z,10.49
2017-10-06T05:55:52.894Z,10.38
2017-10-06T05:58:20.387Z,10.40
2017-10-06T06:00:47.905Z,10.38
2017-10-06T06:03:15.391Z,10.42
2017-10-06T06:05:42.897Z,10.42
2017-10-06T06:08:14.273Z,10.44
2017-10-06T06:10:41.757Z,10.37
2017-10-06T06:13:09.260Z,10.38
2017-10-06T06:15:36.741Z,10.43
2017-10-06T06:18:04.222Z,10.45
2017-10-06T06:20:32.445Z,10.50
2017-10-06T06:23:00.001Z,10.51
2017-10-06T06:25:27.516Z,10.52
2017-10-06T06:27:55.007Z,10.52
2017-10-06T06:30:22.460Z,10.56
2017-10-06T06:32:49.946Z,10.62
2017-10-06T06:35:17.506Z,10.75
2017-10-06T06:37:45.017Z,10.85
2017-10-06T06:40:12.512Z,10.81
2017-10-06T06:42:40.041Z,10.84
2017-10-06T06:45:07.584Z,10.96
2017-10-06T06:47:35.077Z,11.00
2017-10-06T06:50:02.550Z,11.07
2017-10-06T06:52:30.041Z,11.12
2017-10-06T06:54:57.912Z,11.15
2017-10-06T06:57:25.438Z,11.20
2017-10-06T06:59:52.913Z,11.23
2017-10-06T07:02:20.395Z,11.26
2017-10-06T07:04:47.875Z,11.31
2017-10-06T07:07:15.504Z,11.37
2017-10-06T07:09:44.319Z,11.33
2017-10-06T07:12:11.830Z,11.32
2017-10-06T07:14:39.292Z,11.30
2017-10-06T07:17:06.799Z,11.39
2017-10-06T07:19:34.342Z,11.44
2017-10-06T07:22:01.807Z,11.52
2017-10-06T07:24:29.306Z,11.51
2017-10-06T07:26:56.773Z,11.65
2017-10-06T07:29:24.309Z,11.75
2017-10-06T07:31:51.788Z,11.86
2017-10-06T07:34:19.299Z,11.98
2017-10-06T07:36:46.786Z,12.04
2017-10-06T07:39:14.303Z,11.92
2017-10-06T07:41:41.856Z,11.89
2017-10-06T07:44:09.312Z,12.06
2017-10-06T07:46:36.801Z,11.91
2017-10-06T07:49:04.297Z,11.93
2017-10-06T07:51:31.825Z,12.08
2017-10-06T07:53:59.632Z,12.13
2017-10-06T07:56:27.131Z,12.20
2017-10-06T07:58:54.610Z,12.35
2017-10-06T08:01:23.269Z,12.38
2017-10-06T08:03:50.751Z,12.46
2017-10-06T08:06:18.278Z,12.46
2017-10-06T08:08:45.763Z,12.46
2017-10-06T08:11:13.222Z,12.52
2017-10-06T08:13:41.255Z,12.51
2017-10-06T08:16:08.725Z,12.55
2017-10-06T08:18:36.711Z,12.55
2017-10-06T08:21:04.818Z,12.64
2017-10-06T08:23:32.340Z,12.59
2017-10-06T08:25:59.833Z,12.50
2017-10-06T08:28:27.330Z,12.48
2017-10-06T08:30:54.905Z,12.46
2017-10-06T08:33:22.412Z,12.55
2017-10-06T08:35:49.875Z,12.55
2017-10-06T08:38:22.194Z,12.47
2017-10-06T08:40:49.696Z,12.35
2017-10-06T08:43:18.487Z,12.39
2017-10-06T08:45:45.959Z,12.51
2017-10-06T08:48:13.449Z,12.26
2017-10-06T08:50:40.937Z,12.36
2017-10-06T08:53:08.446Z,12.20
2017-10-06T08:55:35.930Z,12.26
2017-10-06T08:58:04.479Z,12.26
2017-10-06T09:00:31.993Z,12.27
2017-10-06T09:02:59.513Z,12.26
2017-10-06T09:05:27.117Z,12.23
2017-10-06T09:07:54.582Z,12.08
2017-10-06T09:10:22.026Z,12.13
2017-10-06T09:12:49.538Z,12.12
2017-10-06T09:15:17.103Z,12.17
2017-10-06T09:17:44.583Z,12.13
2017-10-06T09:20:12.065Z,12.25
2017-10-06T09:22:39.604Z,12.13
2017-10-06T09:25:07.085Z,12.22
2017-10-06T09:27:34.607Z,12.16
2017-10-06T09:30:02.072Z,12.14
2017-10-06T09:32:29.557Z,12.12
2017-10-06T09:34:57.048Z,12.05
2017-10-06T09:37:24.552Z,12.20
2017-10-06T09:39:52.021Z,12.24
2017-10-06T09:42:19.525Z,12.35
2017-10-06T09:44:46.977Z,12.38
2017-10-06T09:47:14.478Z,12.09
2017-10-06T09:49:41.961Z,12.14
2017-10-06T09:52:09.421Z,12.07
2017-10-06T09:54:37.688Z,12.12
2017-10-06T09:57:05.167Z,12.17
2017-10-06T09:59:32.688Z,12.18
2017-10-06T10:02:00.181Z,12.19
2017-10-06T10:04:27.671Z,12.14
2017-10-06T10:06:55.160Z,12.13
2017-10-06T10:09:22.909Z,12.13
2017-10-06T10:11:50.393Z,12.11
2017-10-06T10:14:17.876Z,11.87
2017-10-06T10:16:46.320Z,12.03
2017-10-06T10:19:13.807Z,11.95
2017-10-06T10:21:41.316Z,11.88
2017-10-06T10:24:08.804Z,11.92
2017-10-06T10:26:36.300Z,11.94
2017-10-06T10:29:03.781Z,11.96
2017-10-06T10:31:31.265Z,12.05
2017-10-06T10:33:58.817Z,11.98
2017-10-06T10:36:26.379Z,12.17
2017-10-06T10:38:53.921Z,12.15
2017-10-06T10:41:21.393Z,12.27
2017-10-06T10:43:48.944Z,12.22
2017-10-06T10:46:16.408Z,12.26
2017-10-06T10:48:43.922Z,12.48
2017-10-06T10:51:11.466Z,12.57
2017-10-06T10:53:38.961Z,12.60
2017-10-06T10:56:06.446Z,12.52
2017-10-06T10:58:33.921Z,12.55
2017-10-06T11:01:01.439Z,12.59
2017-10-06T11:03:29.559Z,12.71
2017-10-06T11:05:57.066Z,12.74
2017-10-06T11:08:25.001Z,12.72
2017-10-06T11:10:52.452Z,12.83
2017-10-06T11:13:19.956Z,13.00
2017-10-06T11:15:47.425Z,13.16
2017-10-06T11:18:14.906Z,13.36
2017-10-06T11:20:42.640Z,13.21
2017-10-06T11:23:10.204Z,13.27
2017-10-06T11:25:37.700Z,13.37
2017-10-06T11:28:05.189Z,13.49
2017-10-06T11:30:32.734Z,13.54
2017-10-06T11:33:00.236Z,13.83
2017-10-06T11:35:27.717Z,13.82
2017-10-06T11:37:55.255Z,13.91
2017-10-06T11:40:22.780Z,13.76
2017-10-06T11:42:50.332Z,13.80
2017-10-06T11:45:17.835Z,13.67
2017-10-06T11:47:45.330Z,13.93
2017-10-06T11:50:12.831Z,13.91
2017-10-06T11:52:40.319Z,13.78
2017-10-06T11:55:07.865Z,13.91
2017-10-06T11:57:35.355Z,14.08
2017-10-06T12:00:02.875Z,14.23
2017-10-06T12:02:30.334Z,14.36
2017-10-06T12:04:57.862Z,14.57
2017-10-06T12:07:25.322Z,14.58
2017-10-06T12:09:53.622Z,14.43
2017-10-06T12:12:21.091Z,14.36
2017-10-06T12:14:48.662Z,14.25
2017-10-06T12:17:16.222Z,14.17
2017-10-06T12:19:43.765Z,14.03
2017-10-06T12:22:11.266Z,14.01
2017-10-06T12:24:38.749Z,14.03
2017-10-06T12:27:06.236Z,14.03
2017-10-06T12:29:33.747Z,13.98
2017-10-06T12:32:01.261Z,13.83
2017-10-06T12:34:28.721Z,13.73
2017-10-06T12:36:56.253Z,13.59
2017-10-06T12:39:23.751Z,13.40
2017-10-06T12:41:51.199Z,13.25
2017-10-06T12:44:18.720Z,13.11
2017-10-06T12:46:46.203Z,13.06
2017-10-06T12:49:13.684Z,13.31
2017-10-06T12:51:41.175Z,13.47
2017-10-06T12:54:08.645Z,13.55
2017-10-06T12:56:36.181Z,13.64
2017-10-06T12:59:03.666Z,13.79
2017-10-06T13:01:31.137Z,13.83
2017-10-06T13:03:58.629Z,13.82
2017-10-06T13:06:26.174Z,13.99
2017-10-06T13:08:53.654Z,13.87
2017-10-06T13:11:21.168Z,13.98
2017-10-06T13:13:48.697Z,13.93
2017-10-06T13:16:16.214Z,13.79
2017-10-06T13:18:43.840Z,13.87
2017-10-06T13:21:11.331Z,13.81
2017-10-06T13:23:39.569Z,13.66
2017-10-06T13:26:07.042Z,13.54
2017-10-06T13:28:34.500Z,13.49
2017-10-06T13:31:01.973Z,13.57
2017-10-06T13:33:29.473Z,13.69
2017-10-06T13:35:56.953Z,13.85
2017-10-06T13:38:24.455Z,13.94
2017-10-06T13:40:51.933Z,13.97
2017-10-06T13:43:19.426Z,13.70
2017-10-06T13:45:46.939Z,13.61
2017-10-06T13:48:14.442Z,13.56
2017-10-06T13:50:42.002Z,13.59
2017-10-06T13:53:09.507Z,13.85
2017-10-06T13:55:37.001Z,14.04
2017-10-06T13:58:06.962Z,14.34
2017-10-06T14:00:34.454Z,14.57
2017-10-06T14:03:01.960Z,14.58
2017-10-06T14:05:29.594Z,14.44
2017-10-06T14:07:57.056Z,14.50
2017-10-06T14:10:24.564Z,14.61
2017-10-06T14:12:52.101Z,14.36
2017-10-06T14:15:19.612Z,14.24
2017-10-06T14:17:47.093Z,14.20
2017-10-06T14:20:14.570Z,14.17
2017-10-06T14:22:42.052Z,14.36
2017-10-06T14:25:09.498Z,14.50
2017-10-06T14:27:37.089Z,14.49
2017-10-06T14:30:04.557Z,14.36
2017-10-06T14:32:32.041Z,14.47
2017-10-06T14:34:59.554Z,14.50
2017-10-06T14:37:27.058Z,14.67
2017-10-06T14:39:54.562Z,14.88
2017-10-06T14:42:22.050Z,15.13
2017-10-06T14:44:49.556Z,15.35
2017-10-06T14:47:17.094Z,15.46
2017-10-06T14:49:44.657Z,15.46
2017-10-06T14:52:12.153Z,15.41
2017-10-06T14:54:39.677Z,15.42
2017-10-06T14:57:07.150Z,15.36
2017-10-06T14:59:34.659Z,15.33
2017-10-06T15:02:02.126Z,15.23
2017-10-06T15:04:29.613Z,15.09
2017-10-06T15:06:57.182Z,14.90
2017-10-06T15:09:24.745Z,14.93
2017-10-06T15:11:52.259Z,14.84
2017-10-06T15:14:19.730Z,14.52
2017-10-06T15:16:47.327Z,14.03
2017-10-06T15:19:14.792Z,13.86
2017-10-06T15:21:42.301Z,13.79
2017-10-06T15:24:09.769Z,13.79
2017-10-06T15:26:38.475Z,13.97
2017-10-06T15:29:05.984Z,14.12
2017-10-06T15:31:34.182Z,14.06
2017-10-06T15:34:01.667Z,14.12
2017-10-06T15:36:29.227Z,14.28
2017-10-06T15:38:56.724Z,14.38
2017-10-06T15:41:24.215Z,14.34
2017-10-06T15:43:52.141Z,14.54
2017-10-06T15:46:20.526Z,14.71
2017-10-06T15:48:48.041Z,14.65
2017-10-06T15:51:15.551Z,14.59
2017-10-06T15:53:43.786Z,14.63
2017-10-06T15:56:11.347Z,14.68
2017-10-06T15:58:38.814Z,14.65
2017-10-06T16:01:06.325Z,14.69
2017-10-06T16:03:33.779Z,14.63
2017-10-06T16:06:01.527Z,14.57
2017-10-06T16:08:29.051Z,14.37
2017-10-06T16:10:57.393Z,14.24
2017-10-06T16:13:24.893Z,14.21
2017-10-06T16:15:52.339Z,14.16
2017-10-06T16:18:19.884Z,14.18
2017-10-06T16:20:47.342Z,14.23
2017-10-06T16:23:14.831Z,14.27
2017-10-06T16:25:42.289Z,14.28
2017-10-06T16:28:09.796Z,14.20
2017-10-06T16:30:37.318Z,14.26
2017-10-06T16:33:04.793Z,14.30
2017-10-06T16:35:32.278Z,14.21
2017-10-06T16:37:59.833Z,14.22
2017-10-06T16:40:27.327Z,14.14
2017-10-06T16:42:54.792Z,14.11
2017-10-06T16:45:22.337Z,14.12
2017-10-06T16:47:49.784Z,14.08
2017-10-06T16:50:17.287Z,14.10
2017-10-06T16:52:44.823Z,14.08
2017-10-06T16:55:12.264Z,14.07
2017-10-06T16:57:39.772Z,14.07
2017-10-06T17:00:07.561Z,13.97
2017-10-06T17:02:35.065Z,13.93
2017-10-06T17:05:02.560Z,13.91
2017-10-06T17:07:30.121Z,13.91
2017-10-06T17:09:57.608Z,13.90
2017-10-06T17:12:25.093Z,13.83
2017-10-06T17:14:52.600Z,13.80
2017-10-06T17:17:20.102Z,13.78
2017-10-06T17:19:47.621Z,13.78
2017-10-06T17:22:15.076Z,13.75
2017-10-06T17:24:42.833Z,13.67
2017-10-06T17:27:10.324Z,13.64
2017-10-06T17:29:37.793Z,13.59
2017-10-06T17:32:05.690Z,13.49
2017-10-06T17:34:33.173Z,13.46
2017-10-06T17:37:00.765Z,13.50
2017-10-06T17:39:28.242Z,13.46
2017-10-06T17:41:55.764Z,13.47
2017-10-06T17:44:23.218Z,13.45
2017-10-06T17:46:50.903Z,13.40
2017-10-06T17:49:18.383Z,13.42
2017-10-06T17:51:45.854Z,13.37
2017-10-06T17:54:13.337Z,13.33
2017-10-06T17:56:40.817Z,13.16
2017-10-06T17:59:08.338Z,13.19
2017-10-06T18:01:36.973Z,13.17
2017-10-06T18:04:04.477Z,13.10
2017-10-06T18:06:31.941Z,13.09
2017-10-06T18:08:59.427Z,13.10
2017-10-06T18:11:26.890Z,13.10
2017-10-06T18:13:54.358Z,13.02
2017-10-06T18:16:21.837Z,12.91
2017-10-06T18:18:49.337Z,12.91
2017-10-06T18:21:16.905Z,12.91
2017-10-06T18:23:44.362Z,12.90
2017-10-06T18:26:11.910Z,12.82
2017-10-06T18:28:40.220Z,12.84
2017-10-06T18:31:07.696Z,12.74
2017-10-06T18:33:35.244Z,12.74
2017-10-06T18:36:02.739Z,12.71
2017-10-06T18:38:30.263Z,12.74
2017-10-06T18:40:57.746Z,12.64
2017-10-06T18:43:25.257Z,12.64
2017-10-06T18:45:52.713Z,12.64
2017-10-06T18:48:20.196Z,12.69
2017-10-06T18:50:47.676Z,12.71
2017-10-06T18:53:15.153Z,12.67
2017-10-06T18:55:42.889Z,12.68
2017-10-06T18:58:10.349Z,12.67
2017-10-06T19:00:37.849Z,12.67
2017-10-06T19:03:05.309Z,12.74
2017-10-06T19:05:32.812Z,12.76
2017-10-06T19:08:00.253Z,12.80
2017-10-06T19:10:27.788Z,12.84
2017-10-06T19:12:55.229Z,12.80
2017-10-06T19:15:22.736Z,12.72
2017-10-06T19:17:50.205Z,12.65
2017-10-06T19:20:17.690Z,12.52
2017-10-06T19:22:45.210Z,12.55
2017-10-06T19:25:12.678Z,12.61
2017-10-06T19:27:40.161Z,12.55
2017-10-06T19:30:07.625Z,12.60
2017-10-06T19:32:35.149Z,12.61
2017-10-06T19:35:02.617Z,12.52
2017-10-06T19:37:30.106Z,13.28
2017-10-06T19:39:57.605Z,13.77
2017-10-06T19:42:25.107Z,14.16
2017-10-06T19:44:56.017Z,14.42
2017-10-06T19:47:23.466Z,14.62
2017-10-06T19:49:50.982Z,14.68
2017-10-06T19:52:18.456Z,14.23
2017-10-06T19:54:46.040Z,13.86
2017-10-06T19:59:46.300Z,13.45
2017-10-06T20:09:52.093Z,13.03
2017-10-06T20:12:19.593Z,12.95
2017-10-06T20:17:19.869Z,12.86
2017-10-06T20:24:52.981Z,12.88
2017-10-06T20:29:53.313Z,12.81
2017-10-06T20:34:54.342Z,12.73
2017-10-06T20:39:54.711Z,12.77
2017-10-06T20:42:22.173Z,12.78
2017-10-06T20:52:28.720Z,12.59
2017-10-06T20:57:28.916Z,12.46
2017-10-06T20:59:56.429Z,12.41
2017-10-06T21:07:29.641Z,12.39
2017-10-06T21:15:02.497Z,12.35
2017-10-06T21:20:02.634Z,11.95
2017-10-06T21:22:30.088Z,11.81
2017-10-06T21:30:03.000Z,11.66
2017-10-06T21:37:35.914Z,11.42
2017-10-06T21:40:03.377Z,11.37
2017-10-06T21:47:36.544Z,11.28
2017-10-06T21:50:04.905Z,11.27
2017-10-06T21:57:38.270Z,11.51
2017-10-06T22:00:05.817Z,11.56
2017-10-06T22:02:33.272Z,11.49
2017-10-06T22:15:13.857Z,11.32
2017-10-06T22:20:14.172Z,11.39
2017-10-06T22:27:47.960Z,11.67
2017-10-06T22:30:15.429Z,11.71
2017-10-06T22:42:54.118Z,11.77
2017-10-06T22:45:21.589Z,11.80
2017-10-06T22:50:21.805Z,11.91
2017-10-06T22:55:23.114Z,11.85
2017-10-06T22:57:50.613Z,11.94
2017-10-06T23:00:18.079Z,11.92
2017-10-06T23:02:45.570Z,11.91
2017-10-06T23:07:46.169Z,11.61
2017-10-06T23:10:13.685Z,11.45
2017-10-06T23:12:41.162Z,11.30
2017-10-06T23:20:14.422Z,11.22
2017-10-06T23:30:20.300Z,11.35
2017-10-06T23:32:47.814Z,11.32
2017-10-06T23:35:15.280Z,11.18
2017-10-06T23:37:42.806Z,11.12
2017-10-06T23:42:43.169Z,10.91
2017-10-06T23:50:16.408Z,10.83
2017-10-06T23:52:44.587Z,10.78
2017-10-06T23:57:45.709Z,11.06
